Withams, Virginia
Current Conditions -  °F | °C
As of 6:54 AM on Thursday 29 Jan 2015 (Local Time) from KWAL Reporting Station
Clear Clear  
Wind Chill: 13°   Ceiling: Unl
Heat Index: 21°   Visibility: 10mi
Dew Point: 12°   Wind: 6mph
Humidity: 68%   Direction: 350°N
Pressure: 30.34"   Gusts: NA
Location:  37.95°N, 75.58°W
Report Text: KWAL 291154Z AUTO 35005KT 10SM CLR M06/M11 A3034 RMK AO2 SLP271 T10611111 11033 21067 53006
Loading
Personal Weather Stations






























Interactive Weather Map New forecast layout! Learn more

10-Day Weather Forecast

Advertisements
Track Severe Weather on mobile